createdAt,value
2022-11-05T00:01:49.826Z,58.55
2022-11-05T00:04:37.000Z,62.21
2022-11-05T00:07:35.443Z,67.00
2022-11-05T00:10:26.110Z,64.07
2022-11-05T00:13:15.070Z,62.48
2022-11-05T00:16:01.563Z,60.68
2022-11-05T00:18:30.095Z,58.84
2022-11-05T00:21:00.384Z,57.72
2022-11-05T00:23:46.979Z,60.98
2022-11-05T00:26:15.166Z,64.39
2022-11-05T00:28:44.393Z,64.83
2022-11-05T00:31:13.876Z,62.17
2022-11-05T00:33:44.433Z,60.82
2022-11-05T00:36:12.603Z,59.63
2022-11-05T00:38:40.548Z,58.10
2022-11-05T00:41:08.449Z,59.02
2022-11-05T00:43:55.099Z,60.75
2022-11-05T00:46:23.369Z,65.17
2022-11-05T00:49:10.106Z,65.84
2022-11-05T00:51:37.982Z,62.77
2022-11-05T00:54:05.970Z,62.12
2022-11-05T00:56:34.219Z,61.67
2022-11-05T00:59:02.038Z,60.87
2022-11-05T01:01:30.289Z,60.74
2022-11-05T01:03:58.376Z,60.71
2022-11-05T01:06:26.848Z,60.18
2022-11-05T01:08:55.879Z,60.37
2022-11-05T01:11:33.345Z,60.01
2022-11-05T01:14:05.464Z,59.47
2022-11-05T01:16:33.443Z,60.01
2022-11-05T01:19:02.733Z,63.18
2022-11-05T01:21:32.245Z,63.91
2022-11-05T01:24:00.771Z,62.63
2022-11-05T01:26:30.243Z,61.48
2022-11-05T01:29:01.965Z,60.99
2022-11-05T01:31:30.381Z,60.83
2022-11-05T01:34:00.398Z,60.67
2022-11-05T01:36:28.367Z,60.74
2022-11-05T01:38:56.174Z,60.73
2022-11-05T01:41:24.061Z,60.22
2022-11-05T01:43:56.673Z,59.94
2022-11-05T01:46:29.294Z,60.01
2022-11-05T01:49:03.989Z,60.10
2022-11-05T01:51:32.083Z,59.95
2022-11-05T01:54:03.784Z,59.68
2022-11-05T01:56:44.089Z,59.50
2022-11-05T01:59:14.983Z,59.32
2022-11-05T02:01:43.340Z,60.83
2022-11-05T02:04:16.203Z,64.63
2022-11-05T02:06:47.676Z,65.12
2022-11-05T02:09:20.838Z,63.35
2022-11-05T02:11:50.568Z,62.95
2022-11-05T02:14:18.792Z,61.17
2022-11-05T02:17:25.456Z,60.01
2022-11-05T02:20:10.407Z,59.41
2022-11-05T02:22:47.433Z,60.10
2022-11-05T02:25:15.332Z,61.01
2022-11-05T02:27:59.045Z,65.23
2022-11-05T02:30:53.184Z,66.15
2022-11-05T02:33:47.385Z,63.47
2022-11-05T02:36:43.916Z,61.46
2022-11-05T02:39:22.973Z,60.50
2022-11-05T02:42:12.257Z,59.34
2022-11-05T02:45:05.276Z,59.64
2022-11-05T02:47:42.863Z,63.38
2022-11-05T02:50:24.790Z,64.28
2022-11-05T02:53:01.751Z,62.10
2022-11-05T02:55:51.483Z,60.83
2022-11-05T02:58:19.769Z,59.62
2022-11-05T03:00:54.749Z,59.21
2022-11-05T03:03:31.562Z,61.55
2022-11-05T03:06:08.680Z,65.20
2022-11-05T03:09:01.412Z,65.12
2022-11-05T03:11:33.164Z,62.23
2022-11-05T03:14:04.244Z,61.14
2022-11-05T03:17:04.883Z,60.65
2022-11-05T03:19:40.466Z,60.04
2022-11-05T03:22:11.435Z,58.37
2022-11-05T03:24:42.620Z,58.88
2022-11-05T03:27:15.748Z,61.00
2022-11-05T03:29:47.915Z,64.83
2022-11-05T03:32:15.875Z,65.81
2022-11-05T03:34:48.085Z,63.37
2022-11-05T03:37:17.229Z,60.89
2022-11-05T03:39:49.039Z,59.90
2022-11-05T03:42:18.630Z,58.25
2022-11-05T03:44:50.529Z,59.28
2022-11-05T03:47:22.729Z,61.09
2022-11-05T03:49:50.474Z,65.63
2022-11-05T03:52:20.123Z,65.72
2022-11-05T03:54:47.952Z,62.82
2022-11-05T03:57:22.100Z,61.49
2022-11-05T03:59:53.167Z,60.74
2022-11-05T04:02:23.952Z,59.80
2022-11-05T04:04:52.868Z,59.74
2022-11-05T04:07:56.024Z,58.00
2022-11-05T04:10:42.465Z,59.59
2022-11-05T04:13:26.177Z,63.34
2022-11-05T04:16:14.362Z,65.42
2022-11-05T04:18:42.852Z,62.54
2022-11-05T04:21:29.577Z,60.63
2022-11-05T04:24:10.010Z,60.29
2022-11-05T04:26:43.746Z,58.00
2022-11-05T04:29:30.382Z,59.21
2022-11-05T04:31:58.213Z,61.23
2022-11-05T04:34:26.087Z,65.85
2022-11-05T04:36:54.098Z,65.70
2022-11-05T04:39:21.999Z,62.96
2022-11-05T04:41:49.899Z,60.55
2022-11-05T04:44:17.810Z,57.88
2022-11-05T04:46:45.699Z,58.89
2022-11-05T04:49:13.516Z,59.57
2022-11-05T04:51:41.389Z,63.17
2022-11-05T04:54:09.182Z,64.40
2022-11-05T04:56:37.016Z,61.26
2022-11-05T04:59:04.824Z,59.46
2022-11-05T05:01:32.837Z,58.03
2022-11-05T05:04:01.441Z,59.21
2022-11-05T05:06:30.099Z,63.18
2022-11-05T05:08:58.576Z,63.88
2022-11-05T05:11:26.535Z,61.50
2022-11-05T05:13:55.581Z,60.52
2022-11-05T05:16:27.544Z,59.68
2022-11-05T05:18:55.551Z,57.89
2022-11-05T05:21:39.181Z,58.47
2022-11-05T05:24:08.797Z,59.75
2022-11-05T05:26:41.833Z,64.01
2022-11-05T05:29:10.668Z,64.48
2022-11-05T05:31:38.764Z,62.00
2022-11-05T05:34:08.436Z,60.55
2022-11-05T05:36:37.503Z,58.51
2022-11-05T05:39:13.298Z,58.06
2022-11-05T05:41:41.217Z,60.20
2022-11-05T05:44:09.051Z,63.93
2022-11-05T05:46:37.547Z,65.73
2022-11-05T05:49:12.077Z,63.24
2022-11-05T05:51:40.577Z,61.43
2022-11-05T05:54:08.451Z,60.49
2022-11-05T05:56:37.368Z,58.33
2022-11-05T05:59:06.025Z,59.04
2022-11-05T06:01:34.201Z,60.37
2022-11-05T06:04:03.435Z,64.01
2022-11-05T06:06:31.304Z,64.97
2022-11-05T06:08:59.327Z,63.37
2022-11-05T06:11:27.624Z,61.32
2022-11-05T06:13:55.491Z,60.33
2022-11-05T06:16:23.896Z,58.26
2022-11-05T06:18:53.225Z,58.27
2022-11-05T06:21:21.214Z,60.17
2022-11-05T06:23:49.977Z,64.52
2022-11-05T06:26:19.207Z,64.78
2022-11-05T06:28:47.286Z,62.60
2022-11-05T06:34:19.625Z,59.66
2022-11-05T06:37:04.309Z,58.19
2022-11-05T06:39:41.495Z,59.41
2022-11-05T06:43:02.571Z,62.26
2022-11-05T06:46:29.916Z,66.27
2022-11-05T06:49:01.139Z,64.18
2022-11-05T06:51:33.920Z,61.87
2022-11-05T06:54:02.128Z,60.93
2022-11-05T06:56:35.747Z,60.03
2022-11-05T06:59:30.799Z,58.24
2022-11-05T07:02:12.392Z,57.85
2022-11-05T07:04:41.081Z,60.72
2022-11-05T07:07:27.237Z,64.52
2022-11-05T07:09:57.771Z,65.98
2022-11-05T07:13:35.694Z,63.23
2022-11-05T07:16:37.631Z,60.94
2022-11-05T07:19:23.916Z,58.36
2022-11-05T07:25:10.866Z,60.23
2022-11-05T07:27:42.234Z,65.48
2022-11-05T07:31:50.293Z,64.34
2022-11-05T07:34:18.338Z,60.26
2022-11-05T07:40:37.747Z,59.84
2022-11-05T07:43:05.627Z,60.94
2022-11-05T07:45:37.911Z,65.79
2022-11-05T07:48:17.052Z,65.83
2022-11-05T07:51:18.734Z,62.61
2022-11-05T07:54:36.125Z,60.04
2022-11-05T07:56:48.302Z,56.57
2022-11-05T08:02:51.818Z,59.38
2022-11-05T08:05:29.067Z,64.90
2022-11-05T08:08:22.232Z,62.56
2022-11-05T08:11:01.945Z,58.95
2022-11-05T08:17:44.675Z,59.27
2022-11-05T08:20:15.541Z,60.73
2022-11-05T08:22:45.810Z,64.67
2022-11-05T08:25:15.338Z,63.72
2022-11-05T08:27:43.297Z,62.08
2022-11-05T08:30:11.871Z,57.87
2022-11-05T08:32:45.122Z,56.14
2022-11-05T08:35:13.514Z,57.82
2022-11-05T08:37:41.685Z,59.59
2022-11-05T08:40:12.811Z,61.64
2022-11-05T08:42:44.284Z,65.66
2022-11-05T08:45:16.057Z,62.83
2022-11-05T08:47:47.236Z,59.80
2022-11-05T08:50:15.346Z,55.34
2022-11-05T08:52:44.695Z,55.07
2022-11-05T08:55:18.862Z,56.89
2022-11-05T08:57:55.305Z,59.18
2022-11-05T09:00:24.099Z,59.71
2022-11-05T09:02:57.850Z,62.68
2022-11-05T09:05:26.076Z,66.22
2022-11-05T09:08:03.554Z,63.28
2022-11-05T09:10:35.153Z,59.17
2022-11-05T09:13:04.498Z,57.24
2022-11-05T09:15:33.781Z,57.22
2022-11-05T09:18:03.411Z,59.54
2022-11-05T09:20:32.762Z,60.90
2022-11-05T09:23:01.137Z,64.62
2022-11-05T09:25:29.677Z,63.02
2022-11-05T09:28:16.557Z,60.15
2022-11-05T09:30:47.800Z,57.11
2022-11-05T09:33:18.134Z,58.07
2022-11-05T09:35:46.156Z,58.83
2022-11-05T09:38:14.400Z,59.42
2022-11-05T09:40:59.356Z,61.40
2022-11-05T09:43:53.853Z,65.18
2022-11-05T09:46:28.498Z,62.40
2022-11-05T09:49:05.767Z,58.42
2022-11-05T09:51:36.017Z,56.66
2022-11-05T09:54:04.476Z,57.90
2022-11-05T09:56:37.043Z,59.89
2022-11-05T09:59:14.571Z,61.25
2022-11-05T10:01:44.180Z,65.57
2022-11-05T10:04:23.340Z,63.93
2022-11-05T10:06:57.428Z,59.39
2022-11-05T10:09:29.334Z,56.51
2022-11-05T10:12:13.089Z,56.78
2022-11-05T10:14:48.891Z,58.71
2022-11-05T10:17:24.985Z,59.63
2022-11-05T10:20:30.854Z,61.29
2022-11-05T10:23:10.385Z,64.80
2022-11-05T10:25:42.338Z,62.56
2022-11-05T10:28:19.347Z,58.63
2022-11-05T10:30:50.881Z,56.71
2022-11-05T10:33:42.935Z,57.38
2022-11-05T10:36:15.791Z,58.66
2022-11-05T10:38:44.280Z,60.95
2022-11-05T10:41:28.087Z,63.35
2022-11-05T10:44:19.577Z,62.58
2022-11-05T10:47:24.642Z,57.89
2022-11-05T10:50:03.389Z,57.08
2022-11-05T10:53:00.360Z,57.47
2022-11-05T10:55:34.165Z,58.75
2022-11-05T10:58:30.605Z,60.95
2022-11-05T11:00:58.489Z,62.08
2022-11-05T11:03:48.351Z,62.69
2022-11-05T11:06:41.769Z,60.51
2022-11-05T11:09:20.113Z,55.47
2022-11-05T11:11:56.675Z,54.42
2022-11-05T11:14:24.559Z,56.22
2022-11-05T11:16:57.559Z,58.06
2022-11-05T11:19:53.821Z,59.35
2022-11-05T11:22:22.212Z,58.70
2022-11-05T11:24:54.927Z,59.30
2022-11-05T11:27:30.249Z,60.53
2022-11-05T11:30:02.994Z,61.15
2022-11-05T11:32:39.751Z,61.51
2022-11-05T11:35:18.171Z,62.85
2022-11-05T11:37:46.789Z,63.44
2022-11-05T11:40:37.500Z,60.26
2022-11-05T11:43:28.445Z,55.18
2022-11-05T11:46:02.179Z,54.57
2022-11-05T11:48:35.997Z,56.88
2022-11-05T11:51:35.205Z,56.93
2022-11-05T11:54:04.961Z,57.73
2022-11-05T11:56:45.307Z,59.57
2022-11-05T11:59:46.715Z,59.51
2022-11-05T12:02:34.956Z,59.30
2022-11-05T12:05:03.393Z,59.88
2022-11-05T12:07:41.235Z,60.08
2022-11-05T12:10:24.330Z,60.26
2022-11-05T12:13:17.155Z,60.07
2022-11-05T12:15:58.339Z,59.21
2022-11-05T12:18:40.764Z,59.74
2022-11-05T12:21:52.523Z,59.14
2022-11-05T12:24:36.972Z,58.05
2022-11-05T12:27:27.711Z,57.56
2022-11-05T12:30:05.332Z,57.64
2022-11-05T12:33:04.391Z,57.19
2022-11-05T12:35:49.010Z,58.34
2022-11-05T12:38:35.666Z,58.92
2022-11-05T12:41:22.776Z,58.23
2022-11-05T12:44:01.905Z,57.62
2022-11-05T12:46:43.092Z,58.39
2022-11-05T12:49:30.926Z,58.64
2022-11-05T12:52:09.271Z,56.67
2022-11-05T12:54:51.781Z,56.39
2022-11-05T12:57:20.110Z,53.63
2022-11-05T12:59:50.887Z,54.64
2022-11-05T13:02:29.592Z,54.89
2022-11-05T13:05:13.752Z,53.40
2022-11-05T13:08:21.959Z,53.14
2022-11-05T13:10:57.998Z,55.35
2022-11-05T13:13:46.938Z,55.06
2022-11-05T13:16:29.829Z,53.15
2022-11-05T13:19:02.797Z,52.08
2022-11-05T13:21:31.134Z,51.95
2022-11-05T13:24:11.040Z,51.65
2022-11-05T13:26:47.364Z,49.37
2022-11-05T13:29:38.332Z,48.32
2022-11-05T13:32:38.451Z,46.96
2022-11-05T13:35:15.851Z,46.53
2022-11-05T13:38:10.441Z,45.05
2022-11-05T13:41:07.201Z,46.02
2022-11-05T13:44:13.912Z,47.71
2022-11-05T13:47:20.891Z,49.02
2022-11-05T13:49:53.160Z,48.68
2022-11-05T13:52:43.281Z,49.34
2022-11-05T13:55:57.751Z,50.79
2022-11-05T13:58:47.848Z,50.97
2022-11-05T14:01:17.229Z,51.42
2022-11-05T14:03:48.066Z,51.80
2022-11-05T14:06:28.236Z,52.11
2022-11-05T14:09:03.677Z,52.34
2022-11-05T14:11:35.860Z,52.42
2022-11-05T14:14:09.218Z,52.31
2022-11-05T14:17:09.809Z,51.48
2022-11-05T14:20:05.248Z,49.43
2022-11-05T14:22:40.142Z,46.47
2022-11-05T14:25:21.239Z,45.76
2022-11-05T14:27:51.878Z,43.26
2022-11-05T14:30:45.554Z,43.87
2022-11-05T14:33:24.934Z,41.45
2022-11-05T14:36:20.449Z,40.03
2022-11-05T14:39:13.337Z,41.20
2022-11-05T14:41:53.963Z,40.58
2022-11-05T14:44:28.763Z,39.99
2022-11-05T14:53:43.053Z,41.09
2022-11-05T14:56:42.843Z,42.63
2022-11-05T14:59:26.943Z,44.27
2022-11-05T15:02:22.677Z,45.56
2022-11-05T15:05:37.297Z,46.85
2022-11-05T15:08:27.062Z,47.85
2022-11-05T15:11:19.172Z,49.58
2022-11-05T15:14:39.362Z,50.08
2022-11-05T15:17:46.707Z,50.57
2022-11-05T15:20:41.602Z,52.80
2022-11-05T15:23:25.425Z,52.82
2022-11-05T15:26:14.563Z,53.47
2022-11-05T15:28:54.617Z,53.83
2022-11-05T15:31:48.325Z,54.57
2022-11-05T15:39:02.304Z,56.24
2022-11-05T15:41:47.283Z,57.51
2022-11-05T15:44:29.221Z,58.87
2022-11-05T15:47:33.527Z,58.84
2022-11-05T15:53:14.591Z,60.13
2022-11-05T15:56:49.939Z,66.05
2022-11-05T16:00:29.902Z,60.57
2022-11-05T16:03:08.985Z,53.66
2022-11-05T16:19:41.855Z,57.74
2022-11-05T16:22:09.809Z,58.35
2022-11-05T16:24:37.901Z,59.20
2022-11-05T16:27:06.532Z,59.74
2022-11-05T16:29:38.241Z,59.99
2022-11-05T16:32:15.356Z,60.43
2022-11-05T16:34:48.404Z,60.96
2022-11-05T16:37:18.343Z,60.93
2022-11-05T16:39:46.560Z,61.43
2022-11-05T16:42:23.571Z,61.87
2022-11-05T16:44:52.424Z,66.46
2022-11-05T16:47:21.305Z,65.92
2022-11-05T16:49:49.743Z,60.78
2022-11-05T16:52:18.225Z,55.21
2022-11-05T16:54:46.058Z,54.06
2022-11-05T16:57:34.097Z,55.19
2022-11-05T17:00:01.987Z,55.89
2022-11-05T17:02:30.095Z,57.01
2022-11-05T17:04:58.160Z,57.91
2022-11-05T17:07:26.349Z,58.84
2022-11-05T17:09:55.929Z,59.21
2022-11-05T17:12:23.796Z,59.73
2022-11-05T17:14:51.637Z,59.93
2022-11-05T17:17:19.449Z,60.49
2022-11-05T17:19:47.277Z,61.05
2022-11-05T17:22:15.257Z,61.41
2022-11-05T17:24:43.206Z,65.16
2022-11-05T17:27:11.023Z,65.92
2022-11-05T17:29:38.857Z,60.99
2022-11-05T17:32:07.143Z,55.63
2022-11-05T17:34:35.138Z,54.24
2022-11-05T17:37:06.052Z,55.08
2022-11-05T17:39:34.351Z,56.03
2022-11-05T17:42:02.360Z,57.11
2022-11-05T17:44:30.282Z,57.74
2022-11-05T17:46:58.340Z,58.39
2022-11-05T17:49:26.182Z,59.04
2022-11-05T17:51:54.009Z,59.75
2022-11-05T17:54:21.859Z,60.52
2022-11-05T17:56:49.668Z,61.19
2022-11-05T17:59:17.834Z,65.25
2022-11-05T18:01:46.012Z,66.76
2022-11-05T18:04:14.690Z,60.88
2022-11-05T18:06:42.974Z,55.62
2022-11-05T18:09:11.299Z,54.15
2022-11-05T18:11:40.028Z,55.11
2022-11-05T18:14:08.215Z,56.04
2022-11-05T18:16:37.193Z,57.08
2022-11-05T18:19:05.547Z,57.71
2022-11-05T18:21:34.220Z,58.40
2022-11-05T18:24:04.225Z,59.32
2022-11-05T18:26:32.137Z,59.80
2022-11-05T18:29:01.416Z,60.49
2022-11-05T18:31:29.561Z,61.74
2022-11-05T18:33:59.219Z,66.18
2022-11-05T18:36:30.102Z,65.93
2022-11-05T18:38:59.441Z,59.90
2022-11-05T18:41:27.401Z,54.81
2022-11-05T18:43:59.945Z,54.42
2022-11-05T18:46:56.382Z,55.80
2022-11-05T18:49:17.113Z,56.52
2022-11-05T18:51:45.002Z,57.30
2022-11-05T18:54:12.961Z,58.02
2022-11-05T18:56:45.555Z,58.36
2022-11-05T18:59:35.888Z,58.93
2022-11-05T19:02:03.157Z,59.35
2022-11-05T19:04:31.379Z,60.09
2022-11-05T19:07:04.492Z,60.57
2022-11-05T19:09:34.318Z,60.78
2022-11-05T19:12:02.992Z,61.10
2022-11-05T19:14:31.350Z,61.61
2022-11-05T19:17:00.031Z,65.10
2022-11-05T19:19:28.412Z,66.02
2022-11-05T19:21:56.339Z,61.18
2022-11-05T19:24:24.891Z,55.08
2022-11-05T19:26:52.757Z,53.72
2022-11-05T19:29:20.621Z,54.46
2022-11-05T19:31:48.545Z,55.40
2022-11-05T19:34:16.582Z,56.13
2022-11-05T19:36:44.869Z,57.11
2022-11-05T19:39:14.725Z,57.97
2022-11-05T19:41:42.823Z,58.65
2022-11-05T19:44:11.281Z,59.17
2022-11-05T19:46:39.307Z,59.67
2022-11-05T19:49:07.193Z,60.28
2022-11-05T19:51:35.441Z,60.64
2022-11-05T19:54:06.639Z,61.33
2022-11-05T19:56:36.016Z,65.08
2022-11-05T19:59:06.506Z,65.57
2022-11-05T20:01:34.837Z,60.32
2022-11-05T20:04:03.550Z,54.71
2022-11-05T20:06:35.747Z,53.18
2022-11-05T20:09:21.520Z,54.44
2022-11-05T20:11:53.969Z,55.55
2022-11-05T20:14:23.124Z,56.36
2022-11-05T20:16:51.812Z,56.93
2022-11-05T20:19:20.695Z,57.50
2022-11-05T20:21:49.108Z,58.39
2022-11-05T20:24:24.188Z,58.75
2022-11-05T20:26:56.270Z,59.44
2022-11-05T20:29:32.190Z,60.03
2022-11-05T20:32:03.701Z,60.53
2022-11-05T20:34:32.594Z,61.06
2022-11-05T20:37:01.254Z,65.20
2022-11-05T20:39:29.180Z,66.86
2022-11-05T20:42:00.712Z,61.04
2022-11-05T20:44:28.874Z,55.02
2022-11-05T20:46:56.834Z,53.83
2022-11-05T20:49:25.861Z,54.47
2022-11-05T20:51:54.492Z,55.60
2022-11-05T20:54:23.064Z,56.79
2022-11-05T20:56:51.259Z,57.62
2022-11-05T20:59:21.650Z,57.82
2022-11-05T21:01:51.292Z,58.23
2022-11-05T21:04:19.513Z,58.83
2022-11-05T21:06:47.360Z,59.43
2022-11-05T21:09:15.149Z,59.80
2022-11-05T21:12:01.709Z,60.30
2022-11-05T21:14:29.652Z,60.59
2022-11-05T21:16:57.543Z,61.05
2022-11-05T21:19:25.512Z,61.49
2022-11-05T21:21:53.494Z,61.87
2022-11-05T21:24:21.533Z,66.59
2022-11-05T21:26:50.097Z,66.99
2022-11-05T21:29:18.700Z,60.55
2022-11-05T21:31:46.989Z,54.58
2022-11-05T21:34:15.148Z,53.41
2022-11-05T21:36:43.193Z,54.25
2022-11-05T21:39:13.650Z,55.44
2022-11-05T21:41:42.806Z,56.74
2022-11-05T21:44:10.991Z,57.53
2022-11-05T21:46:38.948Z,58.08
2022-11-05T21:49:06.925Z,58.75
2022-11-05T21:51:53.631Z,58.94
2022-11-05T21:54:40.311Z,59.24
2022-11-05T21:57:34.924Z,59.95
2022-11-05T22:00:08.929Z,60.29
2022-11-05T22:02:37.212Z,60.81
2022-11-05T22:05:06.972Z,61.37
2022-11-05T22:07:37.832Z,61.71
2022-11-05T22:10:15.576Z,65.45
2022-11-05T22:12:45.166Z,66.94
2022-11-05T22:15:13.747Z,60.39
2022-11-05T22:17:46.467Z,53.66
2022-11-05T22:20:16.037Z,52.32
2022-11-05T22:22:44.452Z,53.09
2022-11-05T22:25:13.452Z,54.12
2022-11-05T22:27:42.065Z,54.98
2022-11-05T22:30:10.464Z,55.74
2022-11-05T22:32:39.148Z,56.55
2022-11-05T22:35:07.774Z,57.37
2022-11-05T22:37:35.572Z,57.89
2022-11-05T22:40:03.969Z,58.13
2022-11-05T22:42:31.967Z,58.89
2022-11-05T22:44:59.933Z,59.48
2022-11-05T22:47:27.744Z,59.93
2022-11-05T22:49:55.588Z,60.79
2022-11-05T22:52:23.551Z,61.68
2022-11-05T22:54:51.403Z,61.86
2022-11-05T22:57:19.241Z,65.00
2022-11-05T22:59:47.494Z,66.44
2022-11-05T23:02:15.483Z,60.40
2022-11-05T23:04:43.459Z,55.01
2022-11-05T23:07:29.999Z,53.45
2022-11-05T23:10:16.564Z,54.28
2022-11-05T23:12:44.805Z,55.17
2022-11-05T23:15:32.694Z,56.04
2022-11-05T23:18:19.170Z,56.76
2022-11-05T23:21:05.782Z,58.43
2022-11-05T23:23:52.153Z,59.35
2022-11-05T23:26:38.722Z,59.79
2022-11-05T23:29:06.583Z,60.06
2022-11-05T23:31:52.913Z,60.59
2022-11-05T23:34:20.848Z,60.65
2022-11-05T23:37:07.133Z,61.25
2022-11-05T23:39:39.784Z,61.38
2022-11-05T23:42:29.129Z,61.75
2022-11-05T23:45:15.804Z,61.70
2022-11-05T23:48:02.252Z,67.00
2022-11-05T23:50:34.449Z,65.82
2022-11-05T23:53:05.382Z,57.22
2022-11-05T23:55:33.313Z,54.36
2022-11-05T23:58:01.333Z,54.74
